sensor_id;sensor_type;location;lat;lon;timestamp;temperature;humidity
31391;DHT22;18022;45.492;11.548;2023-08-31T00:01:41;18.00;99.90
31391;DHT22;18022;45.492;11.548;2023-08-31T00:04:07;18.00;99.90
31391;DHT22;18022;45.492;11.548;2023-08-31T00:06:42;17.90;99.90
31391;DHT22;18022;45.492;11.548;2023-08-31T00:09:11;17.80;99.90
31391;DHT22;18022;45.492;11.548;2023-08-31T00:11:37;17.90;99.90
31391;DHT22;18022;45.492;11.548;2023-08-31T00:14:03;17.80;99.90
31391;DHT22;18022;45.492;11.548;2023-08-31T00:16:30;17.90;99.90
31391;DHT22;18022;45.492;11.548;2023-08-31T00:18:56;18.00;99.90
31391;DHT22;18022;45.492;11.548;2023-08-31T00:21:22;17.90;99.90
31391;DHT22;18022;45.492;11.548;2023-08-31T00:23:49;17.90;99.90
31391;DHT22;18022;45.492;11.548;2023-08-31T00:26:14;17.80;99.90
31391;DHT22;18022;45.492;11.548;2023-08-31T00:28:40;17.80;99.90
31391;DHT22;18022;45.492;11.548;2023-08-31T00:31:08;17.80;99.90
31391;DHT22;18022;45.492;11.548;2023-08-31T00:33:34;17.80;99.90
31391;DHT22;18022;45.492;11.548;2023-08-31T00:36:02;17.70;99.90
31391;DHT22;18022;45.492;11.548;2023-08-31T00:38:29;17.60;99.90
31391;DHT22;18022;45.492;11.548;2023-08-31T00:40:55;17.60;99.90
31391;DHT22;18022;45.492;11.548;2023-08-31T00:43:21;17.70;99.90
31391;DHT22;18022;45.492;11.548;2023-08-31T00:45:49;17.80;99.90
31391;DHT22;18022;45.492;11.548;2023-08-31T00:48:17;17.70;99.90
31391;DHT22;18022;45.492;11.548;2023-08-31T00:50:46;17.60;99.90
31391;DHT22;18022;45.492;11.548;2023-08-31T00:53:13;17.60;99.90
31391;DHT22;18022;45.492;11.548;2023-08-31T00:55:39;17.70;99.90
31391;DHT22;18022;45.492;11.548;2023-08-31T00:58:06;17.70;99.90
31391;DHT22;18022;45.492;11.548;2023-08-31T01:06:13;17.70;99.90
31391;DHT22;18022;45.492;11.548;2023-08-31T01:08:56;17.60;99.90
31391;DHT22;18022;45.492;11.548;2023-08-31T01:14:19;17.40;99.90
31391;DHT22;18022;45.492;11.548;2023-08-31T01:16:49;17.50;99.90
31391;DHT22;18022;45.492;11.548;2023-08-31T01:19:45;17.60;99.90
31391;DHT22;18022;45.492;11.548;2023-08-31T01:25:00;17.50;99.90
31391;DHT22;18022;45.492;11.548;2023-08-31T01:27:32;17.50;99.90
31391;DHT22;18022;45.492;11.548;2023-08-31T01:29:58;17.60;99.90
31391;DHT22;18022;45.492;11.548;2023-08-31T01:32:24;17.50;99.90
31391;DHT22;18022;45.492;11.548;2023-08-31T01:34:52;17.60;99.90
31391;DHT22;18022;45.492;11.548;2023-08-31T01:37:50;17.60;99.90
31391;DHT22;18022;45.492;11.548;2023-08-31T01:40:27;17.40;99.90
31391;DHT22;18022;45.492;11.548;2023-08-31T01:42:59;17.40;99.90
31391;DHT22;18022;45.492;11.548;2023-08-31T01:45:26;17.50;99.90
31391;DHT22;18022;45.492;11.548;2023-08-31T01:47:52;17.60;99.90
31391;DHT22;18022;45.492;11.548;2023-08-31T01:50:18;17.40;99.90
31391;DHT22;18022;45.492;11.548;2023-08-31T01:52:44;17.40;99.90
31391;DHT22;18022;45.492;11.548;2023-08-31T01:55:10;17.40;99.90
31391;DHT22;18022;45.492;11.548;2023-08-31T01:57:36;17.40;99.90
31391;DHT22;18022;45.492;11.548;2023-08-31T02:00:02;17.20;99.90
31391;DHT22;18022;45.492;11.548;2023-08-31T02:02:29;17.00;99.90
31391;DHT22;18022;45.492;11.548;2023-08-31T02:04:55;17.00;99.90
31391;DHT22;18022;45.492;11.548;2023-08-31T02:07:21;16.90;99.90
31391;DHT22;18022;45.492;11.548;2023-08-31T02:09:46;17.00;99.90
31391;DHT22;18022;45.492;11.548;2023-08-31T02:12:12;17.10;99.90
31391;DHT22;18022;45.492;11.548;2023-08-31T02:14:38;17.10;99.90
31391;DHT22;18022;45.492;11.548;2023-08-31T02:17:04;17.10;99.90
31391;DHT22;18022;45.492;11.548;2023-08-31T02:19:30;16.90;99.90
31391;DHT22;18022;45.492;11.548;2023-08-31T02:21:55;16.90;99.90
31391;DHT22;18022;45.492;11.548;2023-08-31T02:24:21;16.80;99.90
31391;DHT22;18022;45.492;11.548;2023-08-31T02:26:48;16.70;99.90
31391;DHT22;18022;45.492;11.548;2023-08-31T02:29:14;16.60;99.90
31391;DHT22;18022;45.492;11.548;2023-08-31T02:31:39;16.60;99.90
31391;DHT22;18022;45.492;11.548;2023-08-31T02:34:07;16.60;99.90
31391;DHT22;18022;45.492;11.548;2023-08-31T02:36:32;16.60;99.90
31391;DHT22;18022;45.492;11.548;2023-08-31T02:38:58;16.50;99.90
31391;DHT22;18022;45.492;11.548;2023-08-31T02:41:24;16.50;99.90
31391;DHT22;18022;45.492;11.548;2023-08-31T02:43:53;16.50;99.90
31391;DHT22;18022;45.492;11.548;2023-08-31T02:46:19;16.40;99.90
31391;DHT22;18022;45.492;11.548;2023-08-31T02:48:44;16.40;99.90
31391;DHT22;18022;45.492;11.548;2023-08-31T02:51:10;16.50;99.90
31391;DHT22;18022;45.492;11.548;2023-08-31T02:53:36;16.50;99.90
31391;DHT22;18022;45.492;11.548;2023-08-31T02:56:02;16.40;99.90
31391;DHT22;18022;45.492;11.548;2023-08-31T02:58:28;16.50;99.90
31391;DHT22;18022;45.492;11.548;2023-08-31T03:00:53;16.50;99.90
31391;DHT22;18022;45.492;11.548;2023-08-31T03:03:19;16.50;99.90
31391;DHT22;18022;45.492;11.548;2023-08-31T03:05:45;16.40;99.90
31391;DHT22;18022;45.492;11.548;2023-08-31T03:08:11;16.40;99.90
31391;DHT22;18022;45.492;11.548;2023-08-31T03:10:37;16.50;99.90
31391;DHT22;18022;45.492;11.548;2023-08-31T03:13:03;16.50;99.90
31391;DHT22;18022;45.492;11.548;2023-08-31T03:15:29;16.50;99.90
31391;DHT22;18022;45.492;11.548;2023-08-31T03:17:55;16.40;99.90
31391;DHT22;18022;45.492;11.548;2023-08-31T03:20:21;16.50;99.90
31391;DHT22;18022;45.492;11.548;2023-08-31T03:22:46;16.60;99.90
31391;DHT22;18022;45.492;11.548;2023-08-31T03:25:12;16.60;99.90
31391;DHT22;18022;45.492;11.548;2023-08-31T03:27:37;16.60;99.90
31391;DHT22;18022;45.492;11.548;2023-08-31T03:30:03;16.50;99.90
31391;DHT22;18022;45.492;11.548;2023-08-31T03:32:29;16.50;99.90
31391;DHT22;18022;45.492;11.548;2023-08-31T03:34:55;16.50;99.90
31391;DHT22;18022;45.492;11.548;2023-08-31T03:37:20;16.60;99.90
31391;DHT22;18022;45.492;11.548;2023-08-31T03:39:50;16.50;99.90
31391;DHT22;18022;45.492;11.548;2023-08-31T03:42:15;16.40;99.90
31391;DHT22;18022;45.492;11.548;2023-08-31T03:44:41;16.30;99.90
31391;DHT22;18022;45.492;11.548;2023-08-31T03:47:07;16.30;99.90
31391;DHT22;18022;45.492;11.548;2023-08-31T03:49:33;16.20;99.90
31391;DHT22;18022;45.492;11.548;2023-08-31T03:52:00;16.20;99.90
31391;DHT22;18022;45.492;11.548;2023-08-31T03:54:26;16.20;99.90
31391;DHT22;18022;45.492;11.548;2023-08-31T03:56:52;16.30;99.90
31391;DHT22;18022;45.492;11.548;2023-08-31T03:59:17;16.30;99.90
31391;DHT22;18022;45.492;11.548;2023-08-31T04:01:44;16.20;99.90
31391;DHT22;18022;45.492;11.548;2023-08-31T04:04:09;16.10;99.90
31391;DHT22;18022;45.492;11.548;2023-08-31T04:06:35;15.90;99.90
31391;DHT22;18022;45.492;11.548;2023-08-31T04:09:01;15.80;99.90
31391;DHT22;18022;45.492;11.548;2023-08-31T04:11:26;15.80;99.90
31391;DHT22;18022;45.492;11.548;2023-08-31T04:13:52;15.70;99.90
31391;DHT22;18022;45.492;11.548;2023-08-31T04:16:18;15.70;99.90
31391;DHT22;18022;45.492;11.548;2023-08-31T04:18:44;15.80;99.90
31391;DHT22;18022;45.492;11.548;2023-08-31T04:21:13;15.80;99.90
31391;DHT22;18022;45.492;11.548;2023-08-31T04:23:38;15.80;99.90
31391;DHT22;18022;45.492;11.548;2023-08-31T04:26:14;15.80;99.90
31391;DHT22;18022;45.492;11.548;2023-08-31T04:28:40;15.90;99.90
31391;DHT22;18022;45.492;11.548;2023-08-31T04:31:07;15.90;99.90
31391;DHT22;18022;45.492;11.548;2023-08-31T04:33:37;15.80;99.90
31391;DHT22;18022;45.492;11.548;2023-08-31T04:36:04;15.90;99.90
31391;DHT22;18022;45.492;11.548;2023-08-31T04:38:30;15.80;99.90
31391;DHT22;18022;45.492;11.548;2023-08-31T04:41:00;15.80;99.90
31391;DHT22;18022;45.492;11.548;2023-08-31T04:43:26;15.70;99.90
31391;DHT22;18022;45.492;11.548;2023-08-31T04:45:53;15.70;99.90
31391;DHT22;18022;45.492;11.548;2023-08-31T04:48:19;15.70;99.90
31391;DHT22;18022;45.492;11.548;2023-08-31T04:50:44;15.70;99.90
31391;DHT22;18022;45.492;11.548;2023-08-31T04:53:10;15.70;99.90
31391;DHT22;18022;45.492;11.548;2023-08-31T04:55:36;15.80;99.90
31391;DHT22;18022;45.492;11.548;2023-08-31T04:58:03;15.80;99.90
31391;DHT22;18022;45.492;11.548;2023-08-31T05:00:29;15.70;99.90
31391;DHT22;18022;45.492;11.548;2023-08-31T05:02:55;15.70;99.90
31391;DHT22;18022;45.492;11.548;2023-08-31T05:05:21;15.80;99.90
31391;DHT22;18022;45.492;11.548;2023-08-31T05:07:47;15.80;99.90
31391;DHT22;18022;45.492;11.548;2023-08-31T05:10:12;15.80;99.90
31391;DHT22;18022;45.492;11.548;2023-08-31T05:12:38;15.80;99.90
31391;DHT22;18022;45.492;11.548;2023-08-31T05:15:05;15.90;99.90
31391;DHT22;18022;45.492;11.548;2023-08-31T05:17:31;15.90;99.90
31391;DHT22;18022;45.492;11.548;2023-08-31T05:19:56;15.90;99.90
31391;DHT22;18022;45.492;11.548;2023-08-31T05:22:22;15.90;99.90
31391;DHT22;18022;45.492;11.548;2023-08-31T05:24:48;15.90;99.90
31391;DHT22;18022;45.492;11.548;2023-08-31T05:27:14;15.90;99.90
31391;DHT22;18022;45.492;11.548;2023-08-31T05:29:40;15.90;99.90
31391;DHT22;18022;45.492;11.548;2023-08-31T05:32:05;16.00;99.90
31391;DHT22;18022;45.492;11.548;2023-08-31T05:34:31;16.00;99.90
31391;DHT22;18022;45.492;11.548;2023-08-31T05:37:00;16.00;99.90
31391;DHT22;18022;45.492;11.548;2023-08-31T05:39:26;16.10;99.90
31391;DHT22;18022;45.492;11.548;2023-08-31T05:41:51;16.10;99.90
31391;DHT22;18022;45.492;11.548;2023-08-31T05:44:17;16.20;99.90
31391;DHT22;18022;45.492;11.548;2023-08-31T05:46:43;16.30;99.90
31391;DHT22;18022;45.492;11.548;2023-08-31T05:49:08;16.40;99.90
31391;DHT22;18022;45.492;11.548;2023-08-31T05:51:35;16.50;99.90
31391;DHT22;18022;45.492;11.548;2023-08-31T05:54:00;16.60;99.90
31391;DHT22;18022;45.492;11.548;2023-08-31T05:56:26;16.70;99.90
31391;DHT22;18022;45.492;11.548;2023-08-31T05:58:52;16.80;99.90
31391;DHT22;18022;45.492;11.548;2023-08-31T06:01:20;16.80;99.90
31391;DHT22;18022;45.492;11.548;2023-08-31T06:03:47;16.90;99.90
31391;DHT22;18022;45.492;11.548;2023-08-31T06:06:14;17.10;99.90
31391;DHT22;18022;45.492;11.548;2023-08-31T06:08:39;17.20;99.90
31391;DHT22;18022;45.492;11.548;2023-08-31T06:11:08;17.30;99.90
31391;DHT22;18022;45.492;11.548;2023-08-31T06:13:33;17.30;99.90
31391;DHT22;18022;45.492;11.548;2023-08-31T06:15:59;17.40;99.90
31391;DHT22;18022;45.492;11.548;2023-08-31T06:18:25;17.50;99.90
31391;DHT22;18022;45.492;11.548;2023-08-31T06:20:51;17.60;99.90
31391;DHT22;18022;45.492;11.548;2023-08-31T06:23:17;17.70;99.90
31391;DHT22;18022;45.492;11.548;2023-08-31T06:25:43;17.70;99.90
31391;DHT22;18022;45.492;11.548;2023-08-31T06:28:11;17.80;99.90
31391;DHT22;18022;45.492;11.548;2023-08-31T06:30:37;17.80;99.90
31391;DHT22;18022;45.492;11.548;2023-08-31T06:33:04;17.90;99.90
31391;DHT22;18022;45.492;11.548;2023-08-31T06:35:30;18.00;99.90
31391;DHT22;18022;45.492;11.548;2023-08-31T06:37:56;18.10;99.90
31391;DHT22;18022;45.492;11.548;2023-08-31T06:40:23;18.20;99.90
31391;DHT22;18022;45.492;11.548;2023-08-31T06:42:49;18.20;99.90
31391;DHT22;18022;45.492;11.548;2023-08-31T06:45:15;18.20;99.90
31391;DHT22;18022;45.492;11.548;2023-08-31T06:47:40;18.20;99.90
31391;DHT22;18022;45.492;11.548;2023-08-31T06:50:06;18.30;99.90
31391;DHT22;18022;45.492;11.548;2023-08-31T06:52:32;18.30;99.90
31391;DHT22;18022;45.492;11.548;2023-08-31T06:54:59;18.30;99.90
31391;DHT22;18022;45.492;11.548;2023-08-31T06:57:26;18.30;99.90
31391;DHT22;18022;45.492;11.548;2023-08-31T06:59:52;18.30;99.90
31391;DHT22;18022;45.492;11.548;2023-08-31T07:02:18;18.40;99.90
31391;DHT22;18022;45.492;11.548;2023-08-31T07:04:50;18.40;99.90
31391;DHT22;18022;45.492;11.548;2023-08-31T07:07:17;19.00;99.90
31391;DHT22;18022;45.492;11.548;2023-08-31T07:09:45;18.90;99.90
31391;DHT22;18022;45.492;11.548;2023-08-31T07:12:11;18.90;99.90
31391;DHT22;18022;45.492;11.548;2023-08-31T07:14:38;19.00;99.90
31391;DHT22;18022;45.492;11.548;2023-08-31T07:17:04;19.10;99.90
31391;DHT22;18022;45.492;11.548;2023-08-31T07:19:29;19.10;99.90
31391;DHT22;18022;45.492;11.548;2023-08-31T07:21:55;19.20;99.90
31391;DHT22;18022;45.492;11.548;2023-08-31T07:24:22;19.30;99.90
31391;DHT22;18022;45.492;11.548;2023-08-31T07:26:48;19.30;99.90
31391;DHT22;18022;45.492;11.548;2023-08-31T07:29:14;19.50;99.90
31391;DHT22;18022;45.492;11.548;2023-08-31T07:31:39;19.50;99.90
31391;DHT22;18022;45.492;11.548;2023-08-31T07:34:05;19.50;99.90
31391;DHT22;18022;45.492;11.548;2023-08-31T07:36:31;19.60;99.90
31391;DHT22;18022;45.492;11.548;2023-08-31T07:38:57;19.70;99.90
31391;DHT22;18022;45.492;11.548;2023-08-31T07:41:23;19.80;99.90
31391;DHT22;18022;45.492;11.548;2023-08-31T07:43:49;19.90;99.90
31391;DHT22;18022;45.492;11.548;2023-08-31T07:46:15;20.00;99.90
31391;DHT22;18022;45.492;11.548;2023-08-31T07:48:42;19.90;99.90
31391;DHT22;18022;45.492;11.548;2023-08-31T07:51:08;19.90;99.90
31391;DHT22;18022;45.492;11.548;2023-08-31T07:53:33;20.00;99.90
31391;DHT22;18022;45.492;11.548;2023-08-31T07:55:59;20.00;99.90
31391;DHT22;18022;45.492;11.548;2023-08-31T07:58:25;20.00;99.90
31391;DHT22;18022;45.492;11.548;2023-08-31T08:00:55;20.10;99.90
31391;DHT22;18022;45.492;11.548;2023-08-31T08:03:22;20.20;99.90
31391;DHT22;18022;45.492;11.548;2023-08-31T08:05:48;20.20;99.90
31391;DHT22;18022;45.492;11.548;2023-08-31T08:08:13;20.20;99.90
31391;DHT22;18022;45.492;11.548;2023-08-31T08:10:39;20.20;99.90
31391;DHT22;18022;45.492;11.548;2023-08-31T08:13:05;20.20;99.90
31391;DHT22;18022;45.492;11.548;2023-08-31T08:15:31;20.20;99.90
31391;DHT22;18022;45.492;11.548;2023-08-31T08:17:57;20.40;99.90
31391;DHT22;18022;45.492;11.548;2023-08-31T08:20:24;20.60;99.90
31391;DHT22;18022;45.492;11.548;2023-08-31T08:22:50;20.70;99.90
31391;DHT22;18022;45.492;11.548;2023-08-31T08:25:19;20.70;99.90
31391;DHT22;18022;45.492;11.548;2023-08-31T08:27:45;20.80;99.90
31391;DHT22;18022;45.492;11.548;2023-08-31T08:30:11;20.80;99.90
31391;DHT22;18022;45.492;11.548;2023-08-31T08:32:37;20.90;99.90
31391;DHT22;18022;45.492;11.548;2023-08-31T08:35:02;21.00;99.90
31391;DHT22;18022;45.492;11.548;2023-08-31T08:37:29;21.00;99.90
31391;DHT22;18022;45.492;11.548;2023-08-31T08:39:55;21.00;99.90
31391;DHT22;18022;45.492;11.548;2023-08-31T08:42:23;21.10;99.90
31391;DHT22;18022;45.492;11.548;2023-08-31T08:44:50;21.20;99.90
31391;DHT22;18022;45.492;11.548;2023-08-31T08:47:16;21.10;99.90
31391;DHT22;18022;45.492;11.548;2023-08-31T08:49:43;21.10;99.90
31391;DHT22;18022;45.492;11.548;2023-08-31T08:52:10;21.30;99.90
31391;DHT22;18022;45.492;11.548;2023-08-31T08:54:37;21.30;99.90
31391;DHT22;18022;45.492;11.548;2023-08-31T08:57:04;21.40;99.90
31391;DHT22;18022;45.492;11.548;2023-08-31T08:59:31;21.30;99.90
31391;DHT22;18022;45.492;11.548;2023-08-31T09:01:57;21.30;99.90
31391;DHT22;18022;45.492;11.548;2023-08-31T09:04:23;21.40;99.90
31391;DHT22;18022;45.492;11.548;2023-08-31T09:06:50;21.40;99.90
31391;DHT22;18022;45.492;11.548;2023-08-31T09:09:16;21.50;99.90
31391;DHT22;18022;45.492;11.548;2023-08-31T09:11:42;21.70;99.90
31391;DHT22;18022;45.492;11.548;2023-08-31T09:14:19;22.00;99.90
31391;DHT22;18022;45.492;11.548;2023-08-31T09:16:46;22.30;99.90
31391;DHT22;18022;45.492;11.548;2023-08-31T09:19:23;22.20;99.90
31391;DHT22;18022;45.492;11.548;2023-08-31T09:21:50;22.30;99.90
31391;DHT22;18022;45.492;11.548;2023-08-31T09:24:16;22.30;99.90
31391;DHT22;18022;45.492;11.548;2023-08-31T09:26:47;22.20;99.90
31391;DHT22;18022;45.492;11.548;2023-08-31T09:29:12;22.20;99.90
31391;DHT22;18022;45.492;11.548;2023-08-31T09:31:42;22.20;99.90
31391;DHT22;18022;45.492;11.548;2023-08-31T09:34:09;22.10;99.90
31391;DHT22;18022;45.492;11.548;2023-08-31T09:36:35;22.10;99.90
31391;DHT22;18022;45.492;11.548;2023-08-31T09:39:01;22.20;99.90
31391;DHT22;18022;45.492;11.548;2023-08-31T09:41:27;22.50;99.90
31391;DHT22;18022;45.492;11.548;2023-08-31T09:43:53;22.50;99.90
31391;DHT22;18022;45.492;11.548;2023-08-31T09:46:20;22.50;99.90
31391;DHT22;18022;45.492;11.548;2023-08-31T09:48:47;22.40;99.90
31391;DHT22;18022;45.492;11.548;2023-08-31T09:51:15;22.70;99.90
31391;DHT22;18022;45.492;11.548;2023-08-31T09:53:43;22.70;99.90
31391;DHT22;18022;45.492;11.548;2023-08-31T09:56:13;22.90;99.90
31391;DHT22;18022;45.492;11.548;2023-08-31T09:58:43;22.80;99.90
31391;DHT22;18022;45.492;11.548;2023-08-31T10:01:09;22.90;99.90
31391;DHT22;18022;45.492;11.548;2023-08-31T10:03:35;22.90;99.90
31391;DHT22;18022;45.492;11.548;2023-08-31T10:06:01;23.10;99.90
31391;DHT22;18022;45.492;11.548;2023-08-31T10:08:27;23.30;99.90
31391;DHT22;18022;45.492;11.548;2023-08-31T10:10:59;23.30;99.90
31391;DHT22;18022;45.492;11.548;2023-08-31T10:13:25;23.10;99.90
31391;DHT22;18022;45.492;11.548;2023-08-31T10:15:52;23.50;99.90
31391;DHT22;18022;45.492;11.548;2023-08-31T10:18:19;23.90;99.90
31391;DHT22;18022;45.492;11.548;2023-08-31T10:20:45;23.90;99.90
31391;DHT22;18022;45.492;11.548;2023-08-31T10:23:12;23.60;99.90
31391;DHT22;18022;45.492;11.548;2023-08-31T10:28:22;23.50;99.90
31391;DHT22;18022;45.492;11.548;2023-08-31T10:33:31;24.10;99.90
31391;DHT22;18022;45.492;11.548;2023-08-31T10:35:57;24.20;99.90
31391;DHT22;18022;45.492;11.548;2023-08-31T10:38:25;24.10;99.90
31391;DHT22;18022;45.492;11.548;2023-08-31T10:43:54;24.10;99.90
31391;DHT22;18022;45.492;11.548;2023-08-31T10:46:30;24.20;99.90
31391;DHT22;18022;45.492;11.548;2023-08-31T10:48:58;24.40;99.90
31391;DHT22;18022;45.492;11.548;2023-08-31T10:51:30;24.40;99.90
31391;DHT22;18022;45.492;11.548;2023-08-31T10:54:12;24.50;99.90
31391;DHT22;18022;45.492;11.548;2023-08-31T10:59:25;24.80;99.90
31391;DHT22;18022;45.492;11.548;2023-08-31T11:02:00;24.70;99.90
31391;DHT22;18022;45.492;11.548;2023-08-31T11:04:29;24.50;99.90
31391;DHT22;18022;45.492;11.548;2023-08-31T11:07:18;24.00;99.90
31391;DHT22;18022;45.492;11.548;2023-08-31T11:09:46;23.90;99.90
31391;DHT22;18022;45.492;11.548;2023-08-31T11:12:13;24.10;99.90
31391;DHT22;18022;45.492;11.548;2023-08-31T11:27:09;24.80;99.90
31391;DHT22;18022;45.492;11.548;2023-08-31T11:29:44;25.80;99.90
31391;DHT22;18022;45.492;11.548;2023-08-31T11:32:10;25.40;99.90
31391;DHT22;18022;45.492;11.548;2023-08-31T11:34:48;25.40;99.90
31391;DHT22;18022;45.492;11.548;2023-08-31T11:37:14;25.50;99.90
31391;DHT22;18022;45.492;11.548;2023-08-31T11:39:52;25.70;99.90
31391;DHT22;18022;45.492;11.548;2023-08-31T11:42:19;25.90;99.90
31391;DHT22;18022;45.492;11.548;2023-08-31T11:44:46;25.70;99.90
31391;DHT22;18022;45.492;11.548;2023-08-31T11:47:13;25.50;99.90
31391;DHT22;18022;45.492;11.548;2023-08-31T11:49:40;25.20;99.90
31391;DHT22;18022;45.492;11.548;2023-08-31T11:52:06;25.00;99.90
31391;DHT22;18022;45.492;11.548;2023-08-31T11:54:32;25.10;99.90
31391;DHT22;18022;45.492;11.548;2023-08-31T11:56:57;25.30;99.90
31391;DHT22;18022;45.492;11.548;2023-08-31T11:59:23;25.50;99.90
31391;DHT22;18022;45.492;11.548;2023-08-31T12:01:50;25.30;99.90
31391;DHT22;18022;45.492;11.548;2023-08-31T12:04:16;25.40;99.90
31391;DHT22;18022;45.492;11.548;2023-08-31T12:06:45;25.30;99.90
31391;DHT22;18022;45.492;11.548;2023-08-31T12:09:11;25.30;99.90
31391;DHT22;18022;45.492;11.548;2023-08-31T12:11:37;25.20;99.90
31391;DHT22;18022;45.492;11.548;2023-08-31T12:14:17;25.40;99.90
31391;DHT22;18022;45.492;11.548;2023-08-31T12:16:43;25.80;99.90
31391;DHT22;18022;45.492;11.548;2023-08-31T12:19:11;26.00;99.90
31391;DHT22;18022;45.492;11.548;2023-08-31T12:21:36;26.10;99.90
31391;DHT22;18022;45.492;11.548;2023-08-31T12:24:04;26.20;99.90
31391;DHT22;18022;45.492;11.548;2023-08-31T12:26:31;26.30;99.90
31391;DHT22;18022;45.492;11.548;2023-08-31T12:28:57;26.30;99.90
31391;DHT22;18022;45.492;11.548;2023-08-31T12:31:24;26.20;99.90
31391;DHT22;18022;45.492;11.548;2023-08-31T12:33:49;25.80;99.90
31391;DHT22;18022;45.492;11.548;2023-08-31T12:36:15;25.90;99.90
31391;DHT22;18022;45.492;11.548;2023-08-31T12:38:41;25.70;99.90
31391;DHT22;18022;45.492;11.548;2023-08-31T12:41:07;25.70;99.90
31391;DHT22;18022;45.492;11.548;2023-08-31T12:43:34;25.80;99.90
31391;DHT22;18022;45.492;11.548;2023-08-31T12:45:59;25.90;99.90
31391;DHT22;18022;45.492;11.548;2023-08-31T12:48:26;26.00;99.90
31391;DHT22;18022;45.492;11.548;2023-08-31T12:50:51;26.10;99.90
31391;DHT22;18022;45.492;11.548;2023-08-31T12:53:21;26.20;99.90
31391;DHT22;18022;45.492;11.548;2023-08-31T12:55:47;26.30;99.90
31391;DHT22;18022;45.492;11.548;2023-08-31T12:58:13;26.30;99.90
31391;DHT22;18022;45.492;11.548;2023-08-31T13:00:38;26.30;99.90
31391;DHT22;18022;45.492;11.548;2023-08-31T13:03:05;26.50;99.90
31391;DHT22;18022;45.492;11.548;2023-08-31T13:05:32;26.60;99.90
31391;DHT22;18022;45.492;11.548;2023-08-31T13:07:58;26.70;99.90
31391;DHT22;18022;45.492;11.548;2023-08-31T13:10:24;26.70;99.90
31391;DHT22;18022;45.492;11.548;2023-08-31T13:12:49;26.70;99.90
31391;DHT22;18022;45.492;11.548;2023-08-31T13:15:15;26.80;99.90
31391;DHT22;18022;45.492;11.548;2023-08-31T13:17:41;26.80;99.90
31391;DHT22;18022;45.492;11.548;2023-08-31T13:20:07;26.90;99.90
31391;DHT22;18022;45.492;11.548;2023-08-31T13:22:39;27.00;99.90
31391;DHT22;18022;45.492;11.548;2023-08-31T13:25:25;27.00;99.90
31391;DHT22;18022;45.492;11.548;2023-08-31T13:27:51;26.90;99.90
31391;DHT22;18022;45.492;11.548;2023-08-31T13:30:17;26.90;99.90
31391;DHT22;18022;45.492;11.548;2023-08-31T13:32:42;26.70;99.90
31391;DHT22;18022;45.492;11.548;2023-08-31T13:35:09;26.50;99.90
31391;DHT22;18022;45.492;11.548;2023-08-31T13:37:35;26.60;99.90
31391;DHT22;18022;45.492;11.548;2023-08-31T13:40:01;26.70;99.90
31391;DHT22;18022;45.492;11.548;2023-08-31T13:42:34;26.70;99.90
31391;DHT22;18022;45.492;11.548;2023-08-31T13:45:00;26.70;99.70
31391;DHT22;18022;45.492;11.548;2023-08-31T13:47:26;26.60;99.90
31391;DHT22;18022;45.492;11.548;2023-08-31T13:49:52;26.60;99.90
31391;DHT22;18022;45.492;11.548;2023-08-31T13:52:17;26.70;99.90
31391;DHT22;18022;45.492;11.548;2023-08-31T13:54:46;26.60;99.90
31391;DHT22;18022;45.492;11.548;2023-08-31T13:57:11;26.60;99.90
31391;DHT22;18022;45.492;11.548;2023-08-31T13:59:43;26.70;99.90
31391;DHT22;18022;45.492;11.548;2023-08-31T14:02:08;26.60;99.80
31391;DHT22;18022;45.492;11.548;2023-08-31T14:04:34;26.50;99.90
31391;DHT22;18022;45.492;11.548;2023-08-31T14:07:00;26.30;99.90
31391;DHT22;18022;45.492;11.548;2023-08-31T14:09:27;26.10;99.90
31391;DHT22;18022;45.492;11.548;2023-08-31T14:11:53;26.10;99.90
31391;DHT22;18022;45.492;11.548;2023-08-31T14:14:20;26.10;99.90
31391;DHT22;18022;45.492;11.548;2023-08-31T14:16:47;26.20;99.90
31391;DHT22;18022;45.492;11.548;2023-08-31T14:19:13;26.20;99.90
31391;DHT22;18022;45.492;11.548;2023-08-31T14:21:39;26.10;99.90
31391;DHT22;18022;45.492;11.548;2023-08-31T14:24:05;26.00;99.90
31391;DHT22;18022;45.492;11.548;2023-08-31T14:26:31;25.90;99.90
31391;DHT22;18022;45.492;11.548;2023-08-31T14:28:57;25.90;99.90
31391;DHT22;18022;45.492;11.548;2023-08-31T14:31:23;25.70;99.90
31391;DHT22;18022;45.492;11.548;2023-08-31T14:33:48;25.70;99.90
31391;DHT22;18022;45.492;11.548;2023-08-31T14:36:16;25.70;99.90
31391;DHT22;18022;45.492;11.548;2023-08-31T14:38:42;25.80;99.90
31391;DHT22;18022;45.492;11.548;2023-08-31T14:41:07;25.80;99.90
31391;DHT22;18022;45.492;11.548;2023-08-31T14:43:33;25.80;99.90
31391;DHT22;18022;45.492;11.548;2023-08-31T14:46:00;25.90;99.90
31391;DHT22;18022;45.492;11.548;2023-08-31T14:48:30;25.90;99.90
31391;DHT22;18022;45.492;11.548;2023-08-31T14:50:56;26.00;99.90
31391;DHT22;18022;45.492;11.548;2023-08-31T14:53:24;25.80;99.90
31391;DHT22;18022;45.492;11.548;2023-08-31T14:55:50;25.90;99.90
31391;DHT22;18022;45.492;11.548;2023-08-31T14:58:16;25.80;99.90
31391;DHT22;18022;45.492;11.548;2023-08-31T15:00:42;25.80;99.90
31391;DHT22;18022;45.492;11.548;2023-08-31T15:03:08;25.80;99.90
31391;DHT22;18022;45.492;11.548;2023-08-31T15:05:34;25.70;99.90
31391;DHT22;18022;45.492;11.548;2023-08-31T15:08:01;25.70;99.80
31391;DHT22;18022;45.492;11.548;2023-08-31T15:10:28;25.80;99.90
31391;DHT22;18022;45.492;11.548;2023-08-31T15:12:54;25.90;98.40
31391;DHT22;18022;45.492;11.548;2023-08-31T15:15:27;25.90;99.00
31391;DHT22;18022;45.492;11.548;2023-08-31T15:17:54;25.90;99.50
31391;DHT22;18022;45.492;11.548;2023-08-31T15:20:20;26.00;99.90
31391;DHT22;18022;45.492;11.548;2023-08-31T15:22:46;25.90;98.90
31391;DHT22;18022;45.492;11.548;2023-08-31T15:25:12;25.90;99.30
31391;DHT22;18022;45.492;11.548;2023-08-31T15:27:38;25.80;97.70
31391;DHT22;18022;45.492;11.548;2023-08-31T15:30:04;25.60;98.30
31391;DHT22;18022;45.492;11.548;2023-08-31T15:32:32;25.60;99.60
31391;DHT22;18022;45.492;11.548;2023-08-31T15:34:58;25.50;98.80
31391;DHT22;18022;45.492;11.548;2023-08-31T15:37:24;25.40;97.80
31391;DHT22;18022;45.492;11.548;2023-08-31T15:39:50;25.50;97.60
31391;DHT22;18022;45.492;11.548;2023-08-31T15:42:16;25.50;98.20
31391;DHT22;18022;45.492;11.548;2023-08-31T15:44:42;25.60;97.60
31391;DHT22;18022;45.492;11.548;2023-08-31T15:47:09;25.60;97.40
31391;DHT22;18022;45.492;11.548;2023-08-31T15:49:34;25.70;97.80